• Join FlightAware (Why Join?)
  • Login
  • US Flag 
08:00AM EDT


 

Airport Tracker/Info


-or-


 

Live Flight TrackerFlight Track Log ✈ N1AP ✈ 15-May-2013 ✈ KLBE - KBED

Flight Track Log - Related Links

Times and Time Zones

All times are in EDT time to prevent confusion due to time zone crossing. See the N1AP flight status page for this flight to view local times or setup timezone preferences in your user account.

Time Position Orientation Groundspeed Altitude Reporting Facility
EDT Latitude Longitude Course Direction KTS MPH feet Rate Location/Type
01:28PM 40.2631 -79.3725 58° Northeast 233 268 4,300  Level Cleveland Center
01:30PM 40.3219 -79.2486 58° Northeast 293 337 7,400 2,340 Climbing Cleveland Center
01:31PM 40.3708 -79.1469 58° Northeast 307 353 10,200 2,580 Climbing Cleveland Center
01:32PM 40.4214 -79.0367 59° Northeast 332 382 12,600 2,820 Climbing Cleveland Center
01:33PM 40.4761 -78.9264 57° Northeast 351 404 15,900 2,820 Climbing Cleveland Center
01:34PM 40.5328 -78.8075 58° Northeast 364 419 18,300 2,400 Climbing Cleveland Center
01:35PM 40.5914 -78.6828 58° Northeast 384 442 20,800 2,220 Climbing Cleveland Center
01:37PM 40.7239 -78.3981 58° Northeast 428 493 25,400 2,160 Climbing New York Center
01:38PM 40.7869 -78.2622 58° Northeast 428 493 27,700 1,980 Climbing New York Center
01:39PM 40.8519 -78.1211 59° Northeast 433 498 29,400 1,860 Climbing New York Center
01:40PM 40.9153 -77.9742 60° Northeast 438 504 31,400 1,860 Climbing New York Center
01:41PM 40.9825 -77.8247 59° Northeast 452 520 33,200 1,800 Climbing New York Center
01:42PM 41.0522 -77.6694 59° Northeast 469 540 35,000 1,680 Climbing New York Center
01:43PM 41.1214 -77.5167 59° Northeast 479 551 36,600 960 Climbing New York Center
01:44PM 41.1953 -77.3531 59° Northeast 490 564 37,000 180 Climbing New York Center
01:45PM 41.2689 -77.1861 60° Northeast 510 587 37,000  Level New York Center
01:46PM 41.3450 -77.0111 60° Northeast 530 610 37,000  Level New York Center
01:47PM 41.4228 -76.8356 59° Northeast 530 610 37,000  Level New York Center
01:48PM 41.5053 -76.6464 60° Northeast 535 616 37,000  Level New York Center
01:49PM 41.5847 -76.4675 59° Northeast 535 616 37,000  Level New York Center
01:50PM 41.6578 -76.2878 61° Northeast 541 623 37,000  Level New York Center
01:51PM 41.7344 -76.1106 60° Northeast 541 623 37,000  Level New York Center
01:53PM 41.9167 -75.6711 61° Northeast 533 613 37,000  Level Boston Center
01:54PM 41.9903 -75.4906 61° Northeast 533 613 37,000 -60 Level Boston Center
01:55PM 42.0619 -75.3067 62° Northeast 543 625 36,900 -540 Descending Boston Center
01:56PM 42.0956 -75.1289 76° East 543 625 36,000 -900 Descending Boston Center
01:57PM 42.1272 -74.9231 78° East 544 626 35,100 -900 Descending Boston Center
01:58PM 42.1589 -74.7086 79° East 563 648 34,200 -2,040 Descending Boston Center
01:59PM 42.1922 -74.4969 78° East 574 661 31,100 -2,580 Descending Boston Center
02:00PM 42.2200 -74.3325 77° East 574 661 29,100 -1,080 Descending Boston Center
02:01PM 42.2592 -74.0867 78° East 569 655 29,000 -60 Descending Boston Center
02:02PM 42.2892 -73.8800 79° East 564 649 29,000 -240 Level Boston Center
02:03PM 42.3228 -73.6672 78° East 564 649 28,600 -720 Descending Boston Center
02:04PM 42.3500 -73.4683 79° East 560 644 27,600 -1,080 Descending Boston Center
02:05PM 42.3808 -73.2553 79° East 559 643 26,500 -1,080 Descending Boston Center
02:06PM 42.4092 -73.0531 79° East 559 643 25,500 -1,020 Descending Boston Center
02:07PM 42.4350 -72.8761 79° East 526 605 24,500 -1,380 Descending Boston Center
02:08PM 42.4583 -72.6989 80° East 490 564 22,800 -1,980 Descending Boston Center
02:09PM 42.4817 -72.5244 80° East 478 550 20,600 -2,400 Descending Boston Center
02:10PM 42.5047 -72.3669 79° East 437 503 18,000 -2,700 Descending Boston Center
02:11PM 42.5231 -72.2203 80° East 394 453 15,300 -2,580 Descending Boston Center
02:12PM 42.5394 -72.0964 80° East 377 434 12,900 -2,520 Descending Boston Center
02:13PM 42.5347 -71.9497 92° East 359 413 10,300 -2,400 Descending Boston Center
02:14PM 42.5258 -71.8400 96° East 333 383 8,200 -2,100 Descending Boston Center
02:15PM 42.5147 -71.7133 97° East 316 364 6,100 -1,200 Descending Boston Center
02:16PM 42.5058 -71.6150 97° East 300 345 5,900 -960 Descending Boston Center
02:17PM 42.5167 -71.5333 80° East 295 339 4,500 -1,260 Descending KA90
02:18PM 42.5500 -71.4500 61° Northeast 245 282 4,000 -660 Descending KA90
02:19PM 42.5667 -71.3500 77° East 206 237 3,200 -840 Descending KA90
02:20PM 42.5500 -71.2833 109° East 182 209 2,300 -900 Descending KA90
02:21PM 42.5167 -71.2500 144° Southeast 166 191 1,500 -960 Descending KA90
02:22PM 42.4833 -71.2667 200° South 127 146 400 1,320 Descending KA90
02:24PM 42.4111 -71.2703 182° South 117 135 6,000 1,680 Climbing Boston Center
02:25PM 42.3797 -71.2708 181° South 117 135 6,000  Level Boston Center
02:26PM 42.3547 -71.2714 181° South 117 135 6,000  Level Boston Center
02:28PM 42.3547 -71.2714 20° North 117 135 6,000  Level Boston Center